Time;durP1;ratioP1;P1;durP2;ratioP2;P2;SDS_P1;SDS_P2;PMS_P1;PMS_P2;Temp;Humidity;BMP_temperature;BMP_pressure;BME280_temperature;BME280_humidity;BME280_pressure;Samples;Min_cycle;Max_cycle;Signal;HPM_P1;HPM_P2
2022/06/20 00:01:55;;;;;;;0.03;0.03;;;;;;;;;;5087005;28;20240;-73
2022/06/20 00:04:22;;;;;;;0.00;0.00;;;;;;;;;;5086418;28;20216;-72
2022/06/20 00:06:49;;;;;;;0.00;0.00;;;;;;;;;;5086522;28;20238;-74
2022/06/20 00:09:16;;;;;;;0.00;0.00;;;;;;;;;;5086310;28;20215;-76
2022/06/20 00:11:44;;;;;;;0.00;0.00;;;;;;;;;;5086403;28;20251;-73
2022/06/20 00:14:12;;;;;;;0.10;0.10;;;;;;;;;;5086973;28;20212;-73
2022/06/20 00:16:38;;;;;;;0.05;0.05;;;;;;;;;;5085566;28;20545;-75
2022/06/20 00:19:05;;;;;;;0.10;0.10;;;;;;;;;;5087692;28;20214;-73
2022/06/20 00:21:31;;;;;;;0.00;0.00;;;;;;;;;;5084911;28;20241;-74
2022/06/20 00:23:59;;;;;;;0.08;0.08;;;;;;;;;;5088377;28;20204;-75
2022/06/20 00:26:25;;;;;;;0.10;0.10;;;;;;;;;;5083917;28;20513;-73
2022/06/20 00:28:52;;;;;;;0.00;0.00;;;;;;;;;;5088978;28;20242;-73
2022/06/20 00:31:18;;;;;;;0.00;0.00;;;;;;;;;;5082942;28;20240;-73
2022/06/20 00:33:44;;;;;;;0.10;0.10;;;;;;;;;;5089841;28;20205;-74
2022/06/20 00:36:11;;;;;;;0.00;0.00;;;;;;;;;;5081961;28;20592;-73
2022/06/20 00:38:37;;;;;;;0.00;0.00;;;;;;;;;;5091083;28;20453;-73
2022/06/20 00:41:08;;;;;;;0.10;0.10;;;;;;;;;;5080796;28;20240;-74
2022/06/20 00:43:36;;;;;;;0.00;0.00;;;;;;;;;;5091259;28;20532;-75
2022/06/20 00:46:04;;;;;;;0.00;0.00;;;;;;;;;;5080970;28;20453;-73
2022/06/20 00:48:35;;;;;;;0.00;0.00;;;;;;;;;;5091577;28;20273;-74
2022/06/20 00:51:07;;;;;;;0.00;0.00;;;;;;;;;;5080479;28;20245;-74
2022/06/20 00:53:38;;;;;;;0.10;0.10;;;;;;;;;;5091138;28;20219;-73
2022/06/20 00:56:12;;;;;;;0.08;0.08;;;;;;;;;;5080920;28;20239;-75
2022/06/20 00:58:41;;;;;;;0.10;0.10;;;;;;;;;;5090218;28;20240;-74
2022/06/20 01:01:11;;;;;;;0.10;0.10;;;;;;;;;;5081844;28;20241;-75
2022/06/20 01:03:40;;;;;;;0.00;0.00;;;;;;;;;;5090738;28;20216;-75
2022/06/20 01:06:07;;;;;;;0.00;0.00;;;;;;;;;;5080701;28;20255;-74
2022/06/20 01:08:38;;;;;;;0.00;0.00;;;;;;;;;;5090828;28;20288;-74
2022/06/20 01:11:06;;;;;;;0.00;0.00;;;;;;;;;;5080724;28;20445;-73
2022/06/20 01:13:33;;;;;;;0.00;0.00;;;;;;;;;;5090912;28;20470;-75
2022/06/20 01:16:05;;;;;;;0.00;0.00;;;;;;;;;;5078543;28;20441;-73
2022/06/20 01:18:34;;;;;;;0.00;0.00;;;;;;;;;;5091432;28;20278;-71
2022/06/20 01:21:01;;;;;;;0.70;0.70;;;;;;;;;;5079957;28;20396;-73
2022/06/20 01:23:31;;;;;;;0.00;0.00;;;;;;;;;;5091691;28;20216;-73
2022/06/20 01:26:13;;;;;;;0.00;0.00;;;;;;;;;;5079654;28;20328;-73
2022/06/20 01:28:43;;;;;;;0.00;0.00;;;;;;;;;;5087018;28;20237;-74
2022/06/20 01:31:11;;;;;;;0.00;0.00;;;;;;;;;;5081666;28;20266;-74
2022/06/20 01:33:38;;;;;;;0.00;0.00;;;;;;;;;;5090797;28;20535;-74
2022/06/20 01:38:49;;;;;;;0.10;0.10;;;;;;;;;;5089127;28;20266;-74
2022/06/20 01:44:03;;;;;;;0.00;0.00;;;;;;;;;;5088451;28;20247;-74
2022/06/20 01:46:30;;;;;;;0.10;0.10;;;;;;;;;;5083691;28;20247;-73
2022/06/20 01:48:59;;;;;;;0.10;0.10;;;;;;;;;;5087713;28;20257;-74
2022/06/20 01:51:27;;;;;;;0.10;0.10;;;;;;;;;;5082968;28;20247;-72
2022/06/20 01:53:55;;;;;;;0.00;0.00;;;;;;;;;;5087394;28;20335;-73
2022/06/20 01:56:22;;;;;;;0.00;0.00;;;;;;;;;;5081805;28;20239;-72
2022/06/20 01:58:52;;;;;;;0.00;0.00;;;;;;;;;;5087721;28;20327;-72
2022/06/20 02:01:19;;;;;;;0.03;0.03;;;;;;;;;;5081646;28;20436;-73
2022/06/20 02:03:47;;;;;;;0.10;0.10;;;;;;;;;;5088500;28;20208;-73
2022/06/20 02:06:15;;;;;;;0.10;0.10;;;;;;;;;;5080774;28;20240;-72
2022/06/20 02:08:42;;;;;;;0.10;0.10;;;;;;;;;;5089188;28;20202;-71
2022/06/20 02:11:10;;;;;;;0.10;0.10;;;;;;;;;;5080681;28;20312;-73
2022/06/20 02:13:40;;;;;;;0.00;0.00;;;;;;;;;;5090672;28;20490;-75
2022/06/20 02:16:08;;;;;;;0.03;0.03;;;;;;;;;;5080369;28;20245;-74
2022/06/20 02:18:38;;;;;;;0.00;0.00;;;;;;;;;;5090619;28;20413;-74
2022/06/20 02:21:06;;;;;;;0.00;0.00;;;;;;;;;;5080080;28;20276;-74
2022/06/20 02:23:35;;;;;;;0.00;0.00;;;;;;;;;;5090136;28;20515;-74
2022/06/20 02:26:02;;;;;;;0.00;0.00;;;;;;;;;;5079055;28;20302;-73
2022/06/20 02:28:33;;;;;;;0.00;0.00;;;;;;;;;;5091238;28;20281;-74
2022/06/20 02:30:59;;;;;;;0.00;0.00;;;;;;;;;;5080106;28;20439;-73
2022/06/20 02:33:27;;;;;;;0.10;0.10;;;;;;;;;;5091784;28;20280;-73
2022/06/20 02:35:55;;;;;;;0.00;0.00;;;;;;;;;;5078288;28;20258;-72
2022/06/20 02:38:21;;;;;;;0.00;0.00;;;;;;;;;;5091980;28;20463;-75
2022/06/20 02:40:48;;;;;;;0.00;0.00;;;;;;;;;;5077819;28;20311;-73
2022/06/20 02:43:17;;;;;;;0.10;0.10;;;;;;;;;;5092997;28;20205;-74
2022/06/20 02:45:45;;;;;;;0.00;0.00;;;;;;;;;;5077855;28;20557;-72
2022/06/20 02:48:12;;;;;;;0.00;0.00;;;;;;;;;;5093307;28;20209;-73
2022/06/20 02:50:41;;;;;;;0.00;0.00;;;;;;;;;;5077484;28;20236;-73
2022/06/20 02:53:13;;;;;;;0.00;0.00;;;;;;;;;;5094030;28;20274;-74
2022/06/20 02:55:40;;;;;;;0.00;0.00;;;;;;;;;;5077322;28;20242;-74
2022/06/20 02:58:11;;;;;;;0.00;0.00;;;;;;;;;;5098245;28;20255;-73
2022/06/20 03:00:40;;;;;;;0.10;0.10;;;;;;;;;;5080325;28;20256;-73
2022/06/20 03:03:10;;;;;;;0.00;0.00;;;;;;;;;;5097711;28;20209;-74
2022/06/20 03:05:36;;;;;;;0.10;0.10;;;;;;;;;;5080861;28;20241;-73
2022/06/20 03:08:03;;;;;;;0.10;0.10;;;;;;;;;;5097976;28;20216;-74
2022/06/20 03:10:34;;;;;;;0.10;0.10;;;;;;;;;;5079345;28;20292;-75
2022/06/20 03:13:01;;;;;;;0.05;0.05;;;;;;;;;;5098256;28;20489;-73
2022/06/20 03:15:28;;;;;;;0.03;0.03;;;;;;;;;;5079137;28;20478;-74
2022/06/20 03:17:57;;;;;;;0.00;0.00;;;;;;;;;;5098663;28;20225;-72
2022/06/20 03:20:25;;;;;;;0.00;0.00;;;;;;;;;;5078061;28;20454;-74
2022/06/20 03:22:53;;;;;;;0.10;0.10;;;;;;;;;;5098710;28;20214;-74
2022/06/20 03:25:20;;;;;;;0.00;0.00;;;;;;;;;;5077760;28;20488;-74
2022/06/20 03:27:51;;;;;;;0.10;0.10;;;;;;;;;;5099208;28;20205;-74
2022/06/20 03:30:26;;;;;;;0.10;0.10;;;;;;;;;;5077378;28;20203;-73
2022/06/20 03:32:53;;;;;;;0.00;0.00;;;;;;;;;;5098418;28;20228;-72
2022/06/20 03:35:19;;;;;;;0.00;0.00;;;;;;;;;;5076627;28;20204;-73
2022/06/20 03:37:45;;;;;;;0.00;0.00;;;;;;;;;;5098838;28;20369;-74
2022/06/20 03:40:12;;;;;;;0.00;0.00;;;;;;;;;;5075539;28;20208;-73
2022/06/20 03:42:38;;;;;;;0.05;0.05;;;;;;;;;;5099481;28;20205;-74
2022/06/20 03:45:08;;;;;;;0.10;0.10;;;;;;;;;;5080470;28;20209;-72
2022/06/20 03:47:37;;;;;;;0.00;0.00;;;;;;;;;;5100237;28;20215;-74
2022/06/20 03:50:06;;;;;;;0.00;0.00;;;;;;;;;;5084775;28;20206;-74
2022/06/20 03:52:35;;;;;;;0.00;0.00;;;;;;;;;;5073192;28;20403;-73
2022/06/20 03:55:04;;;;;;;0.10;0.10;;;;;;;;;;5085078;28;20513;-74
2022/06/20 03:57:32;;;;;;;0.00;0.00;;;;;;;;;;5073212;28;20547;-74
2022/06/20 04:00:02;;;;;;;0.00;0.00;;;;;;;;;;5084621;28;20225;-72
2022/06/20 04:02:34;;;;;;;0.00;0.00;;;;;;;;;;5089731;28;20238;-74
2022/06/20 04:05:02;;;;;;;0.00;0.00;;;;;;;;;;5084706;28;20200;-72
2022/06/20 04:07:30;;;;;;;0.08;0.08;;;;;;;;;;5089244;28;20306;-73
2022/06/20 04:12:48;;;;;;;0.10;0.10;;;;;;;;;;5084196;28;20242;-72
2022/06/20 04:15:17;;;;;;;0.05;0.05;;;;;;;;;;5075680;28;20200;-72
2022/06/20 04:20:36;;;;;;;0.10;0.10;;;;;;;;;;5077659;28;20246;-74
2022/06/20 04:23:03;;;;;;;0.00;0.00;;;;;;;;;;5095687;28;20212;-74
2022/06/20 04:25:34;;;;;;;0.10;0.10;;;;;;;;;;5077232;28;21097;-74
2022/06/20 04:28:05;;;;;;;0.10;0.10;;;;;;;;;;5095880;28;20300;-74
2022/06/20 04:30:34;;;;;;;0.00;0.00;;;;;;;;;;5077423;28;20238;-74
2022/06/20 04:33:04;;;;;;;0.10;0.10;;;;;;;;;;5095656;28;20382;-73
2022/06/20 04:35:34;;;;;;;0.10;0.10;;;;;;;;;;5076968;28;20566;-72
2022/06/20 04:38:01;;;;;;;0.10;0.10;;;;;;;;;;5095657;28;20254;-73
2022/06/20 04:40:30;;;;;;;0.10;0.10;;;;;;;;;;5076513;28;20628;-73
2022/06/20 04:43:01;;;;;;;0.00;0.00;;;;;;;;;;5096353;28;20430;-71
2022/06/20 04:45:31;;;;;;;0.10;0.10;;;;;;;;;;5076438;28;20258;-73
2022/06/20 04:47:59;;;;;;;0.00;0.00;;;;;;;;;;5096116;28;20207;-73
2022/06/20 04:50:29;;;;;;;0.10;0.10;;;;;;;;;;5076254;28;20314;-73
2022/06/20 04:52:59;;;;;;;0.00;0.00;;;;;;;;;;5096390;28;20217;-73
2022/06/20 04:55:28;;;;;;;0.00;0.00;;;;;;;;;;5076366;28;20288;-72
2022/06/20 04:57:56;;;;;;;0.00;0.00;;;;;;;;;;5095791;28;20268;-73
2022/06/20 05:00:25;;;;;;;0.03;0.03;;;;;;;;;;5075408;28;20466;-73
2022/06/20 05:02:54;;;;;;;0.10;0.10;;;;;;;;;;5096695;28;20221;-71
2022/06/20 05:05:22;;;;;;;0.00;0.00;;;;;;;;;;5075198;28;20390;-72
2022/06/20 05:07:50;;;;;;;0.00;0.00;;;;;;;;;;5096526;28;20200;-74
2022/06/20 05:10:18;;;;;;;0.10;0.10;;;;;;;;;;5074303;28;20205;-74
2022/06/20 05:12:48;;;;;;;0.10;0.10;;;;;;;;;;5096725;28;20212;-73
2022/06/20 05:15:17;;;;;;;0.00;0.00;;;;;;;;;;5073354;28;20211;-71
2022/06/20 05:17:45;;;;;;;0.10;0.10;;;;;;;;;;5096781;28;20446;-73
2022/06/20 05:20:18;;;;;;;0.00;0.00;;;;;;;;;;5072753;28;20222;-71
2022/06/20 05:22:48;;;;;;;0.00;0.00;;;;;;;;;;5097069;28;20214;-72
2022/06/20 05:25:18;;;;;;;0.10;0.10;;;;;;;;;;5073999;28;20205;-73
2022/06/20 05:27:46;;;;;;;0.03;0.03;;;;;;;;;;5097151;28;20209;-74
2022/06/20 05:30:15;;;;;;;0.10;0.10;;;;;;;;;;5073869;28;20212;-74
2022/06/20 05:32:46;;;;;;;0.00;0.00;;;;;;;;;;5097040;28;20193;-73
2022/06/20 05:35:16;;;;;;;0.08;0.08;;;;;;;;;;5073010;28;20205;-74
2022/06/20 05:37:45;;;;;;;0.00;0.00;;;;;;;;;;5096933;28;20241;-74
2022/06/20 05:40:15;;;;;;;0.00;0.00;;;;;;;;;;5073338;28;20343;-72
2022/06/20 05:42:42;;;;;;;0.10;0.10;;;;;;;;;;5096931;28;20466;-71
2022/06/20 05:45:19;;;;;;;0.10;0.10;;;;;;;;;;5072785;28;20209;-73
2022/06/20 05:47:48;;;;;;;0.08;0.08;;;;;;;;;;5095910;28;20500;-69
2022/06/20 05:50:23;;;;;;;0.00;0.00;;;;;;;;;;5072823;28;20211;-67
2022/06/20 05:52:51;;;;;;;0.00;0.00;;;;;;;;;;5095109;28;20204;-67
2022/06/20 05:55:21;;;;;;;0.00;0.00;;;;;;;;;;5073732;28;20345;-75
2022/06/20 05:57:50;;;;;;;0.05;0.05;;;;;;;;;;5095814;28;20523;-75
2022/06/20 06:00:18;;;;;;;0.00;0.00;;;;;;;;;;5072858;28;20377;-73
2022/06/20 06:02:47;;;;;;;0.00;0.00;;;;;;;;;;5096721;28;20491;-73
2022/06/20 06:05:15;;;;;;;0.10;0.10;;;;;;;;;;5072833;28;20560;-67
2022/06/20 06:07:44;;;;;;;0.10;0.10;;;;;;;;;;5096582;28;20260;-67
2022/06/20 06:10:21;;;;;;;0.10;0.10;;;;;;;;;;5072685;28;20232;-68
2022/06/20 06:12:50;;;;;;;0.00;0.00;;;;;;;;;;5095751;28;20259;-67
2022/06/20 06:15:32;;;;;;;0.10;0.10;;;;;;;;;;5073615;28;20204;-68
2022/06/20 06:18:00;;;;;;;0.10;0.10;;;;;;;;;;5094418;28;20526;-68
2022/06/20 06:20:27;;;;;;;0.10;0.10;;;;;;;;;;5074693;28;20237;-69
2022/06/20 06:22:54;;;;;;;0.10;0.10;;;;;;;;;;5094978;28;20214;-68
2022/06/20 06:25:27;;;;;;;0.10;0.10;;;;;;;;;;5074061;28;20232;-68
2022/06/20 06:27:57;;;;;;;0.00;0.00;;;;;;;;;;5094941;28;20570;-69
2022/06/20 06:30:24;;;;;;;0.03;0.03;;;;;;;;;;5076190;28;20210;-69
2022/06/20 06:32:53;;;;;;;0.10;0.10;;;;;;;;;;5099279;28;20237;-69
2022/06/20 06:35:22;;;;;;;0.10;0.10;;;;;;;;;;5077772;28;20241;-68
2022/06/20 06:37:52;;;;;;;0.10;0.10;;;;;;;;;;5099411;28;20212;-68
2022/06/20 06:40:22;;;;;;;0.00;0.00;;;;;;;;;;5077761;28;20203;-68
2022/06/20 06:42:49;;;;;;;0.00;0.00;;;;;;;;;;5099560;28;20474;-68
2022/06/20 06:45:21;;;;;;;0.00;0.00;;;;;;;;;;5076947;28;20276;-67
2022/06/20 06:47:50;;;;;;;0.00;0.00;;;;;;;;;;5099547;28;20408;-69
2022/06/20 06:50:21;;;;;;;0.00;0.00;;;;;;;;;;5076749;28;20410;-68
2022/06/20 06:52:51;;;;;;;0.10;0.10;;;;;;;;;;5098780;28;20211;-67
2022/06/20 06:55:25;;;;;;;0.00;0.00;;;;;;;;;;5077062;28;20212;-68
2022/06/20 06:57:54;;;;;;;0.00;0.00;;;;;;;;;;5098276;28;20224;-68
2022/06/20 07:00:25;;;;;;;0.03;0.03;;;;;;;;;;5077093;28;20441;-69
2022/06/20 07:02:53;;;;;;;0.10;0.10;;;;;;;;;;5098395;28;20287;-69
2022/06/20 07:05:24;;;;;;;0.00;0.00;;;;;;;;;;5077428;28;20204;-68
2022/06/20 07:07:52;;;;;;;0.10;0.10;;;;;;;;;;5098661;28;20404;-68
2022/06/20 07:10:20;;;;;;;0.00;0.00;;;;;;;;;;5076527;28;20215;-69
2022/06/20 07:12:48;;;;;;;0.10;0.10;;;;;;;;;;5099012;28;20241;-68
2022/06/20 07:15:15;;;;;;;0.10;0.10;;;;;;;;;;5075465;28;20205;-69
2022/06/20 07:17:46;;;;;;;0.00;0.00;;;;;;;;;;5099695;28;20357;-68
2022/06/20 07:20:12;;;;;;;0.03;0.03;;;;;;;;;;5078064;28;20220;-68
2022/06/20 07:22:40;;;;;;;0.05;0.05;;;;;;;;;;5100265;28;20561;-68
2022/06/20 07:25:07;;;;;;;0.10;0.10;;;;;;;;;;5074759;28;20213;-69
2022/06/20 07:27:35;;;;;;;0.10;0.10;;;;;;;;;;5100144;28;20214;-68
2022/06/20 07:30:04;;;;;;;0.03;0.03;;;;;;;;;;5084809;28;20200;-68
2022/06/20 07:32:32;;;;;;;0.00;0.00;;;;;;;;;;5073231;28;20208;-68
2022/06/20 07:35:02;;;;;;;0.10;0.10;;;;;;;;;;5084778;28;20287;-69
2022/06/20 07:37:30;;;;;;;0.00;0.00;;;;;;;;;;5090121;28;20337;-68
2022/06/20 07:39:58;;;;;;;0.00;0.00;;;;;;;;;;5084510;28;20293;-73
2022/06/20 07:42:26;;;;;;;0.00;0.00;;;;;;;;;;5089338;28;20325;-71
2022/06/20 07:44:55;;;;;;;0.00;0.00;;;;;;;;;;5084786;28;20232;-70
2022/06/20 07:47:24;;;;;;;0.03;0.03;;;;;;;;;;5090195;28;20246;-70
2022/06/20 07:49:54;;;;;;;0.00;0.00;;;;;;;;;;5084846;28;20200;-71
2022/06/20 07:52:24;;;;;;;0.10;0.10;;;;;;;;;;5089944;28;20564;-73
2022/06/20 07:54:53;;;;;;;0.00;0.00;;;;;;;;;;5084689;28;20209;-71
2022/06/20 07:57:21;;;;;;;0.00;0.00;;;;;;;;;;5089893;28;20271;-72
2022/06/20 07:59:50;;;;;;;0.00;0.00;;;;;;;;;;5084008;28;20295;-72
2022/06/20 08:02:19;;;;;;;0.00;0.00;;;;;;;;;;5089544;28;20235;-71
2022/06/20 08:04:47;;;;;;;0.10;0.10;;;;;;;;;;5084624;28;20200;-72
2022/06/20 08:07:17;;;;;;;0.00;0.00;;;;;;;;;;5089670;28;20243;-72
2022/06/20 08:09:46;;;;;;;0.00;0.00;;;;;;;;;;5084066;28;20207;-70
2022/06/20 08:12:17;;;;;;;0.10;0.10;;;;;;;;;;5089456;28;20239;-72
2022/06/20 08:14:45;;;;;;;0.10;0.10;;;;;;;;;;5084729;28;20271;-72
2022/06/20 08:17:12;;;;;;;0.10;0.10;;;;;;;;;;5089576;28;20498;-71
2022/06/20 08:19:40;;;;;;;0.00;0.00;;;;;;;;;;5084743;28;20224;-74
2022/06/20 08:22:10;;;;;;;0.10;0.10;;;;;;;;;;5089755;28;20238;-73
2022/06/20 08:24:39;;;;;;;0.10;0.10;;;;;;;;;;5084242;28;20515;-71
2022/06/20 08:27:09;;;;;;;0.03;0.03;;;;;;;;;;5089594;28;20248;-72
2022/06/20 08:29:37;;;;;;;0.00;0.00;;;;;;;;;;5084493;28;20413;-72
2022/06/20 08:32:07;;;;;;;0.05;0.05;;;;;;;;;;5089896;28;20304;-72
2022/06/20 08:34:37;;;;;;;0.00;0.00;;;;;;;;;;5085226;28;20542;-69
2022/06/20 08:37:08;;;;;;;0.00;0.00;;;;;;;;;;5088078;28;20242;-72
2022/06/20 08:39:36;;;;;;;0.05;0.05;;;;;;;;;;5085153;28;20225;-69
2022/06/20 08:42:23;;;;;;;0.08;0.08;;;;;;;;;;5089309;28;20306;-68
2022/06/20 08:45:03;;;;;;;0.10;0.10;;;;;;;;;;5077676;28;20255;-68
2022/06/20 08:47:51;;;;;;;0.10;0.10;;;;;;;;;;5073126;28;20220;-68
2022/06/20 08:50:40;;;;;;;0.10;0.10;;;;;;;;;;5075512;28;20189;-68
2022/06/20 08:53:22;;;;;;;0.10;0.10;;;;;;;;;;5095467;28;20204;-68
2022/06/20 08:56:00;;;;;;;0.10;0.10;;;;;;;;;;5078302;28;20342;-69
2022/06/20 08:58:31;;;;;;;0.08;0.08;;;;;;;;;;5094141;28;20371;-68
2022/06/20 09:01:02;;;;;;;0.00;0.00;;;;;;;;;;5080607;28;20308;-69
2022/06/20 09:03:54;;;;;;;0.00;0.00;;;;;;;;;;5092842;28;20284;-66
2022/06/20 09:06:26;;;;;;;0.10;0.10;;;;;;;;;;5083141;28;20267;-65
2022/06/20 09:09:02;;;;;;;0.00;0.00;;;;;;;;;;5089471;28;20332;-73
2022/06/20 09:11:46;;;;;;;0.10;0.10;;;;;;;;;;5084369;28;20239;-71
2022/06/20 09:14:23;;;;;;;0.10;0.10;;;;;;;;;;5085470;28;20250;-72
2022/06/20 09:16:56;;;;;;;0.10;0.10;;;;;;;;;;5086176;28;20242;-65
2022/06/20 09:19:27;;;;;;;0.10;0.10;;;;;;;;;;5085995;28;20233;-68
2022/06/20 09:21:59;;;;;;;0.10;0.10;;;;;;;;;;5086477;28;20246;-68
2022/06/20 09:24:30;;;;;;;0.00;0.00;;;;;;;;;;5085941;28;20372;-66
2022/06/20 09:27:02;;;;;;;0.00;0.00;;;;;;;;;;5087718;28;20245;-66
2022/06/20 09:29:41;;;;;;;0.10;0.10;;;;;;;;;;5084164;28;20537;-65
2022/06/20 09:32:19;;;;;;;0.10;0.10;;;;;;;;;;5088886;28;20238;-67
2022/06/20 09:34:59;;;;;;;0.05;0.05;;;;;;;;;;5083831;28;20283;-64
2022/06/20 09:37:41;;;;;;;0.05;0.05;;;;;;;;;;5088864;28;20240;-66
2022/06/20 09:40:15;;;;;;;0.00;0.00;;;;;;;;;;5073386;28;20354;-72
2022/06/20 09:42:46;;;;;;;0.05;0.05;;;;;;;;;;5097562;28;20434;-66
2022/06/20 09:45:18;;;;;;;0.00;0.00;;;;;;;;;;5074294;28;20235;-66
2022/06/20 09:47:56;;;;;;;0.05;0.05;;;;;;;;;;5097166;28;20212;-66
2022/06/20 09:50:28;;;;;;;0.10;0.10;;;;;;;;;;5075094;28;20358;-64
2022/06/20 09:53:02;;;;;;;0.10;0.10;;;;;;;;;;5095918;28;20210;-65
2022/06/20 09:55:34;;;;;;;0.08;0.08;;;;;;;;;;5075874;28;20240;-66
2022/06/20 09:58:13;;;;;;;0.10;0.10;;;;;;;;;;5094997;28;20230;-66
2022/06/20 10:00:42;;;;;;;0.10;0.10;;;;;;;;;;5077075;28;20238;-65
2022/06/20 10:03:17;;;;;;;0.10;0.10;;;;;;;;;;5093770;28;20207;-66
2022/06/20 10:05:48;;;;;;;0.00;0.00;;;;;;;;;;5077547;28;20408;-65
2022/06/20 10:08:19;;;;;;;0.10;0.10;;;;;;;;;;5093372;28;20502;-65
2022/06/20 10:10:48;;;;;;;0.00;0.00;;;;;;;;;;5078051;28;20280;-64
2022/06/20 10:13:18;;;;;;;0.10;0.10;;;;;;;;;;5093532;28;20236;-65
2022/06/20 10:15:48;;;;;;;0.00;0.00;;;;;;;;;;5077998;28;20311;-65
2022/06/20 10:18:22;;;;;;;0.05;0.05;;;;;;;;;;5093091;28;20266;-64
2022/06/20 10:20:51;;;;;;;0.00;0.00;;;;;;;;;;5078163;28;20264;-65
2022/06/20 10:23:26;;;;;;;0.00;0.00;;;;;;;;;;5092951;28;20239;-65
2022/06/20 10:26:16;;;;;;;0.03;0.03;;;;;;;;;;5078662;28;20305;-65
2022/06/20 10:28:46;;;;;;;0.10;0.10;;;;;;;;;;5089268;28;20288;-64
2022/06/20 10:31:17;;;;;;;0.00;0.00;;;;;;;;;;5081343;28;20549;-65
2022/06/20 10:33:56;;;;;;;0.00;0.00;;;;;;;;;;5089366;28;20210;-64
2022/06/20 10:36:28;;;;;;;0.08;0.08;;;;;;;;;;5082584;28;20249;-65
2022/06/20 10:39:07;;;;;;;0.00;0.00;;;;;;;;;;5087984;28;20269;-64
2022/06/20 10:41:40;;;;;;;0.00;0.00;;;;;;;;;;5083847;28;20247;-65
2022/06/20 10:44:14;;;;;;;0.10;0.10;;;;;;;;;;5086135;28;20216;-65
2022/06/20 10:46:42;;;;;;;0.10;0.10;;;;;;;;;;5084590;28;20311;-66
2022/06/20 10:49:23;;;;;;;0.10;0.10;;;;;;;;;;5086011;28;20213;-65
2022/06/20 10:51:57;;;;;;;0.10;0.10;;;;;;;;;;5085929;28;20473;-65
2022/06/20 10:54:34;;;;;;;0.10;0.10;;;;;;;;;;5084112;28;20209;-65
2022/06/20 10:57:07;;;;;;;0.05;0.05;;;;;;;;;;5087188;28;20285;-65
2022/06/20 10:59:40;;;;;;;0.10;0.10;;;;;;;;;;5082560;28;20299;-65
2022/06/20 11:02:09;;;;;;;0.10;0.10;;;;;;;;;;5087952;28;20335;-65
2022/06/20 11:04:49;;;;;;;0.00;0.00;;;;;;;;;;5082940;28;20229;-64
2022/06/20 11:07:22;;;;;;;0.03;0.03;;;;;;;;;;5088010;28;20487;-64
2022/06/20 11:09:53;;;;;;;0.00;0.00;;;;;;;;;;5082726;28;20330;-65
2022/06/20 11:12:24;;;;;;;0.08;0.08;;;;;;;;;;5087284;28;20244;-67
2022/06/20 11:14:54;;;;;;;0.03;0.03;;;;;;;;;;5081711;28;20224;-68
2022/06/20 11:17:25;;;;;;;0.00;0.00;;;;;;;;;;5088655;28;20251;-73
2022/06/20 11:19:56;;;;;;;0.10;0.10;;;;;;;;;;5085442;28;20285;-71
2022/06/20 11:22:30;;;;;;;0.03;0.03;;;;;;;;;;5090610;28;20260;-69
2022/06/20 11:25:02;;;;;;;0.05;0.05;;;;;;;;;;5085287;28;20199;-70
2022/06/20 11:27:47;;;;;;;0.05;0.05;;;;;;;;;;5090631;28;20240;-65
2022/06/20 11:30:18;;;;;;;0.00;0.00;;;;;;;;;;5075779;28;20250;-64
2022/06/20 11:32:53;;;;;;;0.00;0.00;;;;;;;;;;5098881;28;20263;-65
2022/06/20 11:35:25;;;;;;;0.10;0.10;;;;;;;;;;5076793;28;20196;-65
2022/06/20 11:38:05;;;;;;;0.00;0.00;;;;;;;;;;5098157;28;20205;-66
2022/06/20 11:40:44;;;;;;;0.00;0.00;;;;;;;;;;5078231;28;20612;-65
2022/06/20 11:43:34;;;;;;;0.10;0.10;;;;;;;;;;5095261;28;20204;-65
2022/06/20 11:46:05;;;;;;;0.03;0.03;;;;;;;;;;5081581;28;20244;-66
2022/06/20 11:48:37;;;;;;;0.10;0.10;;;;;;;;;;5093103;28;20205;-67
2022/06/20 11:51:07;;;;;;;0.05;0.05;;;;;;;;;;5082129;28;20285;-69
2022/06/20 11:53:48;;;;;;;0.10;0.10;;;;;;;;;;5092494;28;20205;-69
2022/06/20 11:56:21;;;;;;;0.03;0.03;;;;;;;;;;5080823;28;20235;-69
2022/06/20 11:59:02;;;;;;;0.10;0.10;;;;;;;;;;5090038;28;20241;-70
2022/06/20 12:01:32;;;;;;;0.08;0.08;;;;;;;;;;5082359;28;20285;-69
2022/06/20 12:04:00;;;;;;;0.08;0.08;;;;;;;;;;5089374;28;20204;-69
2022/06/20 12:06:30;;;;;;;0.00;0.00;;;;;;;;;;5083250;28;20335;-70
2022/06/20 12:09:01;;;;;;;0.00;0.00;;;;;;;;;;5090327;28;20231;-68
2022/06/20 12:11:39;;;;;;;0.00;0.00;;;;;;;;;;5084750;28;20281;-67
2022/06/20 12:14:13;;;;;;;0.00;0.00;;;;;;;;;;5088257;28;20208;-70
2022/06/20 12:16:47;;;;;;;0.00;0.00;;;;;;;;;;5085919;28;20262;-69
2022/06/20 12:25:00;;;;;;;0.00;0.00;;;;;;;;;;5045618;28;20188;-68
2022/06/20 12:27:28;;;;;;;0.10;0.10;;;;;;;;;;5088992;28;20239;-68
2022/06/20 12:29:54;;;;;;;0.10;0.10;;;;;;;;;;5084054;28;20201;-68
2022/06/20 12:32:22;;;;;;;0.00;0.00;;;;;;;;;;5089213;28;20268;-68
2022/06/20 12:34:52;;;;;;;0.00;0.00;;;;;;;;;;5084038;28;20517;-69
2022/06/20 12:37:23;;;;;;;0.05;0.05;;;;;;;;;;5089189;28;20252;-68
2022/06/20 12:39:52;;;;;;;0.00;0.00;;;;;;;;;;5083648;28;20218;-70
2022/06/20 12:42:22;;;;;;;0.10;0.10;;;;;;;;;;5088822;28;20314;-69
2022/06/20 12:44:56;;;;;;;0.05;0.05;;;;;;;;;;5083813;28;20406;-69
2022/06/20 12:47:35;;;;;;;0.05;0.05;;;;;;;;;;5088969;28;20240;-68
2022/06/20 12:50:06;;;;;;;0.00;0.00;;;;;;;;;;5083470;28;20246;-68
2022/06/20 12:52:39;;;;;;;0.10;0.10;;;;;;;;;;5071886;28;20435;-68
2022/06/20 12:55:12;;;;;;;0.00;0.00;;;;;;;;;;5073416;28;20242;-69
2022/06/20 12:57:50;;;;;;;0.10;0.10;;;;;;;;;;5097790;28;20263;-69
2022/06/20 13:00:28;;;;;;;0.10;0.10;;;;;;;;;;5075284;28;20252;-69
2022/06/20 13:03:14;;;;;;;0.03;0.03;;;;;;;;;;5083037;28;20208;-69
2022/06/20 13:05:48;;;;;;;0.10;0.10;;;;;;;;;;5077558;28;20242;-69
2022/06/20 13:08:23;;;;;;;0.00;0.00;;;;;;;;;;5093262;28;20207;-69
2022/06/20 13:10:57;;;;;;;0.10;0.10;;;;;;;;;;5077133;28;20316;-69
2022/06/20 13:13:41;;;;;;;0.00;0.00;;;;;;;;;;5092889;28;20580;-69
2022/06/20 13:16:16;;;;;;;0.00;0.00;;;;;;;;;;5079357;28;20558;-70
2022/06/20 13:18:55;;;;;;;0.00;0.00;;;;;;;;;;5090783;28;20215;-69
2022/06/20 13:21:27;;;;;;;0.03;0.03;;;;;;;;;;5082272;28;20260;-68
2022/06/20 13:24:00;;;;;;;0.08;0.08;;;;;;;;;;5087674;28;20206;-69
2022/06/20 13:26:33;;;;;;;0.10;0.10;;;;;;;;;;5082507;28;20244;-69
2022/06/20 13:29:04;;;;;;;0.00;0.00;;;;;;;;;;5086775;28;20406;-70
2022/06/20 13:31:36;;;;;;;0.10;0.10;;;;;;;;;;5083131;28;20636;-69
2022/06/20 13:34:05;;;;;;;0.03;0.03;;;;;;;;;;5086611;28;20394;-69
2022/06/20 13:36:34;;;;;;;0.03;0.03;;;;;;;;;;5081982;28;20235;-68
2022/06/20 13:39:06;;;;;;;0.00;0.00;;;;;;;;;;5087507;28;20621;-69
2022/06/20 13:41:38;;;;;;;0.00;0.00;;;;;;;;;;5083347;28;20358;-68
2022/06/20 13:44:12;;;;;;;0.05;0.05;;;;;;;;;;5086255;28;20207;-68
2022/06/20 13:46:49;;;;;;;0.00;0.00;;;;;;;;;;5084471;28;20456;-68
2022/06/20 13:49:18;;;;;;;0.03;0.03;;;;;;;;;;5084761;28;20246;-69
2022/06/20 13:51:48;;;;;;;0.05;0.05;;;;;;;;;;5084875;28;20240;-69
2022/06/20 13:54:20;;;;;;;0.00;0.00;;;;;;;;;;5084863;28;20539;-69
2022/06/20 13:56:53;;;;;;;0.08;0.08;;;;;;;;;;5085009;28;20299;-68
2022/06/20 13:59:21;;;;;;;0.08;0.08;;;;;;;;;;5083894;28;20377;-70
2022/06/20 14:01:58;;;;;;;0.05;0.05;;;;;;;;;;5085433;28;20248;-70
2022/06/20 14:04:25;;;;;;;0.00;0.00;;;;;;;;;;5083606;28;20276;-70
2022/06/20 14:06:53;;;;;;;0.00;0.00;;;;;;;;;;5085733;28;20239;-69
2022/06/20 14:09:21;;;;;;;0.00;0.00;;;;;;;;;;5084215;28;20300;-66
2022/06/20 14:11:53;;;;;;;0.00;0.00;;;;;;;;;;5085332;28;20300;-66
2022/06/20 14:14:23;;;;;;;0.08;0.08;;;;;;;;;;5083795;28;20254;-67
2022/06/20 14:16:51;;;;;;;0.00;0.00;;;;;;;;;;5085615;28;20453;-65
2022/06/20 14:19:20;;;;;;;0.03;0.03;;;;;;;;;;5083914;28;20211;-66
2022/06/20 14:21:49;;;;;;;0.00;0.00;;;;;;;;;;5084710;28;20438;-66
2022/06/20 14:24:18;;;;;;;0.10;0.10;;;;;;;;;;5084904;28;20213;-65
2022/06/20 14:26:45;;;;;;;0.00;0.00;;;;;;;;;;5085160;28;20596;-65
2022/06/20 14:29:17;;;;;;;0.00;0.00;;;;;;;;;;5085071;28;20604;-65
2022/06/20 14:31:49;;;;;;;0.00;0.00;;;;;;;;;;5084518;28;20598;-66
2022/06/20 14:34:19;;;;;;;0.10;0.10;;;;;;;;;;5084222;28;20238;-65
2022/06/20 14:36:49;;;;;;;0.00;0.00;;;;;;;;;;5085153;28;20241;-67
2022/06/20 14:39:19;;;;;;;0.00;0.00;;;;;;;;;;5084699;28;20505;-65
2022/06/20 14:41:52;;;;;;;0.10;0.10;;;;;;;;;;5084668;28;20241;-66
2022/06/20 14:44:25;;;;;;;0.10;0.10;;;;;;;;;;5083554;28;20438;-65
2022/06/20 14:46:59;;;;;;;0.10;0.10;;;;;;;;;;5085501;28;20271;-65
2022/06/20 14:49:28;;;;;;;0.10;0.10;;;;;;;;;;5083096;28;20205;-65
2022/06/20 14:51:57;;;;;;;0.10;0.10;;;;;;;;;;5088129;28;20460;-66
2022/06/20 14:54:29;;;;;;;0.00;0.00;;;;;;;;;;5087200;28;20213;-64
2022/06/20 14:57:00;;;;;;;0.00;0.00;;;;;;;;;;5089961;28;20283;-65
2022/06/20 14:59:31;;;;;;;0.00;0.00;;;;;;;;;;5086580;28;20215;-65
2022/06/20 15:02:00;;;;;;;0.05;0.05;;;;;;;;;;5089917;28;20352;-66
2022/06/20 15:04:29;;;;;;;0.10;0.10;;;;;;;;;;5087458;28;20208;-66
2022/06/20 15:07:15;;;;;;;0.05;0.05;;;;;;;;;;5090201;28;20265;-65
2022/06/20 15:09:45;;;;;;;0.00;0.00;;;;;;;;;;5086986;28;20218;-72
2022/06/20 15:12:21;;;;;;;0.08;0.08;;;;;;;;;;5091866;28;20236;-73
2022/06/20 15:14:50;;;;;;;0.00;0.00;;;;;;;;;;5086001;28;20342;-75
2022/06/20 15:17:20;;;;;;;0.00;0.00;;;;;;;;;;5091429;28;20316;-74
2022/06/20 15:19:49;;;;;;;0.03;0.03;;;;;;;;;;5085906;28;20217;-75
2022/06/20 15:22:19;;;;;;;0.08;0.08;;;;;;;;;;5090867;28;20313;-75